Metar Cercanos

 

LEPA - Palma De Mallorc, Spain
Distance from station: ONO 38km
Actualización: 20/08/2018 20:00
Few Clouds
Few Clouds
 Viento del SSO
Viento: SSO 13 km/h
Temperatura: 30°C
Indice Calor: 31°C
Rocío: 19°C
Humedad: 52%
Barómetro: 1015 hPa
Clouds: Few Clouds
Visibility: 10 km
Cloud details: Few Clouds 762 m
2018/08/20 18:00 LEPA 201800Z 20007KT 170V230 9999 FEW025 30/19 Q1015 NOSIG
LEMH - Mahon/Menorca Is, Spain
Distance from station: ENE 105km
Actualización: 20/08/2018 20:00
Despejado
Despejado
 Viento del N
Viento: N 17 km/h
Temperatura: 26°C
Rocío: 17°C
Humedad: 58%
Barómetro: 1016 hPa
Resumen: Despejado
Visibility: greater than 10 km
2018/08/20 18:00 LEMH 201800Z 36009KT CAVOK 26/17 Q1016
 
LEIB - Ibiza/Es Codola, Spain
Distance from station: OSO 165km
Actualización: 20/08/2018 20:00
Despejado
Despejado
 Viento del S
Viento: S 7 km/h
Temperatura: 29°C
Indice Calor: 30°C
Rocío: 19°C
Humedad: 55%
Barómetro: 1016 hPa
Resumen: Despejado
Visibility: greater than 10 km
2018/08/20 18:00 LEIB 201800Z 19004KT 150V240 CAVOK 29/19 Q1016 NOSIG
LEBL - Barcelona Airpor, Spain
Distance from station: NNO 225km
Actualización: 20/08/2018 20:00
Despejado
Despejado
 Viento del ESE
Viento: ESE 9 km/h
Temperatura: 28°C
Indice Calor: 30°C
Rocío: 21°C
Humedad: 66%
Barómetro: 1016 hPa
Resumen: Despejado
Visibility: greater than 10 km
2018/08/20 18:00 LEBL 201800Z 12005KT CAVOK 28/21 Q1016 NOSIG
 
LEVC - Valencia (civ/Mi, Spain
Distance from station: NO 188km
Actualización: 20/08/2018 20:00
Few Clouds
Few Clouds
 Viento del SSE
Viento: SSE 17 km/h
Temperatura: 29°C
Indice Calor: 28°C
Rocío: 14°C
Humedad: 40%
Barómetro: 1016 hPa
Clouds: Few Clouds
Visibility: 10 km
Cloud details: Few Clouds 762 m
2018/08/20 18:00 LEVC 201800Z 15009KT 9999 FEW025 29/14 Q1016 NOSIG
LEGE - Gerona/Costa Bra, Spain
Distance from station: N 276km
Actualización: 20/08/2018 20:00
Despejado
Despejado
 Viento del SO
Viento: SO 9 km/h
Temperatura: 27°C
Indice Calor: 27°C
Rocío: 15°C
Humedad: 48%
Barómetro: 1017 hPa
Resumen: Despejado
Visibility: greater than 10 km
2018/08/20 18:00 LEGE 201800Z 22005KT CAVOK 27/15 Q1017
 
LEAL - Alicante/El Alte, Spain
Distance from station: OSO 344km
Actualización: 20/08/2018 20:00
Despejado
Despejado
 Viento del E
Viento: E 9 km/h
Temperatura: 28°C
Indice Calor: 29°C
Rocío: 18°C
Humedad: 55%
Barómetro: 1016 hPa
Resumen: Despejado
Visibility: greater than 10 km
2018/08/20 18:00 LEAL 201800Z 10005KT 070V140 CAVOK 28/18 Q1016 NOSIG
LEAM - Almeria Airport, Spain
Distance from station: SSO 56km
Actualización: 20/08/2018 20:00
Few Clouds
Few Clouds
 Viento del E
Viento: E 26 km/h
Temperatura: 29°C
Indice Calor: 31°C
Rocío: 20°C
Humedad: 58%
Barómetro: 1015 hPa
Clouds: Few Clouds
Visibility: 10 km
Cloud details: Few Clouds 762 m
2018/08/20 18:00 LEAM 201800Z 08014KT 9999 FEW025 29/20 Q1015
 
LEZG - Zaragoza (mil/Ci, Spain
Distance from station: NO 431km
Actualización: 20/08/2018 20:00
Despejado
Despejado
 Viento del ONO
Viento: ONO 13 km/h
Temperatura: 31°C
Rocío: 11°C
Humedad: 29%
Barómetro: 1016 hPa
Resumen: Despejado
Visibility: greater than 10 km
2018/08/20 18:00 LEZG 201800Z 30007KT CAVOK 31/11 Q1016
LEMD - Madrid/Barajas, Spain
Distance from station: ONO 234km
Actualización: 20/08/2018 20:00
Despejado
Despejado
 Viento del SSE
Viento: SSE 9 km/h
Temperatura: 32°C
Rocío: 6°C
Humedad: 20%
Barómetro: 1017 hPa
Resumen: Despejado
Visibility: greater than 10 km
2018/08/20 18:00 LEMD 201800Z 15005KT 120V180 CAVOK 32/06 Q1017 NOSIG
 
LEGR - Granada Airport, Spain
Distance from station: OSO 62km
Actualización: 20/08/2018 20:00
Few Clouds
Few Clouds
 Viento del SO
Viento: SO 19 km/h
Temperatura: 29°C
Indice Calor: 29°C
Rocío: 17°C
Humedad: 48%
Barómetro: 1016 hPa
Clouds: Few Clouds
Visibility: 10 km
Cloud details: Few Clouds 1524 m
2018/08/20 18:00 LEGR 201800Z 22010KT 180V240 9999 FEW050TCU 29/17 Q1016
LEMG - Malaga (civ/Mil), Spain
Distance from station: OSO 227km
Actualización: 20/08/2018 20:00
Few Clouds
Few Clouds
 Viento del ESE
Viento: ESE 9 km/h
Temperatura: 26°C
Rocío: 21°C
Humedad: 74%
Barómetro: 1016 hPa
Clouds: Few Clouds
Visibility: 10 km
Cloud details: Few Clouds 610 m
2018/08/20 18:00 LEMG 201800Z 12005KT 080V150 9999 FEW020 26/21 Q1016 NOSIG
 
LEZL - Sevilla (civ/Mil, Spain
Distance from station: S 318km
Actualización: 20/08/2018 20:00
Despejado
Despejado
 Viento del E
Viento: E 7 km/h
Temperatura: 35°C
Rocío: 12°C
Humedad: 25%
Barómetro: 1012 hPa
Resumen: Despejado
Visibility: greater than 10 km
2018/08/20 18:00 LEZL 201800Z 10004KT 070V160 CAVOK 35/12 Q1012 NOSIG
LEVT - Vitoria, Spain
Distance from station: NO 226km
Actualización: 20/08/2018 20:00
Few Clouds
Few Clouds
 Viento del N
Viento: N 24 km/h
Temperatura: 23°C
Rocío: 14°C
Humedad: 57%
Barómetro: 1021 hPa
Clouds: Few Clouds
Visibility: 10 km
Cloud details: Few Clouds 914 m
2018/08/20 18:00 LEVT 201800Z 36013KT 9999 FEW030 23/14 Q1021
 
LEBB - Bilbao/Sondica, Spain
Distance from station: NNO 235km
Actualización: 20/08/2018 20:00
Few Clouds
Few Clouds
 Viento del NNO
Viento: NNO 9 km/h
Temperatura: 24°C
Rocío: 16°C
Humedad: 61%
Barómetro: 1021 hPa
Clouds: Few Clouds
Visibility: 10 km
Cloud details: Few Clouds 671 m
2018/08/20 18:00 LEBB 201800Z 34005KT 310V010 9999 FEW022 24/16 Q1021 NOSIG
LESO - San Sebastian/Fu, Spain
Distance from station: N 231km
Actualización: 20/08/2018 20:00
Few Clouds
Few Clouds
 Viento del N
Viento: N 6 km/h
Temperatura: 23°C
Rocío: 18°C
Humedad: 74%
Barómetro: 1021 hPa
Clouds: Few Clouds
Visibility: 10 km
Cloud details: Few Clouds 701 m
2018/08/20 18:00 LESO 201800Z 01003KT 320V070 9999 FEW023 23/18 Q1021
 
LEVD - Valladolid(Mil/C, Spain
Distance from station: ONO 239km
Actualización: 20/08/2018 20:00
Despejado
Despejado
 Viento del ENE
Viento: ENE 15 km/h
Temperatura: 28°C
Rocío: 7°C
Humedad: 26%
Barómetro: 1020 hPa
Resumen: Despejado
Visibility: greater than 10 km
2018/08/20 18:00 LEVD 201800Z 06008KT 030V120 CAVOK 28/07 Q1020
LESA - Salamanca (civ/M, Spain
Distance from station: ONO 349km
Actualización: 20/08/2018 20:00
Few Clouds
Few Clouds
 Viento del ESE
Viento: ESE 6 km/h
Temperatura: 30°C
Rocío: 10°C
Humedad: 29%
Barómetro: 1019 hPa
Clouds: Few Clouds
Visibility: 10 km
Cloud details: Few Clouds 1219 m
2018/08/20 18:00 LESA 201800Z 11003KT 070V140 9999 FEW040 30/10 Q1019
 
LEXJ - Santander/Paraya, Spain
Distance from station: NNO 247km
Actualización: 20/08/2018 20:00
Despejado
Despejado
 Viento del NE
Viento: NE 13 km/h
Temperatura: 22°C
Rocío: 18°C
Humedad: 78%
Barómetro: 1020 hPa
Resumen: Despejado
Visibility: greater than 10 km
2018/08/20 18:00 LEXJ 201800Z 05007KT 350V100 CAVOK 22/18 Q1020
LEAS - Asturias/Aviles, Spain
Distance from station: NO 214km
Actualización: 20/08/2018 20:00
Few Clouds
Few Clouds
 Viento del E
Viento: E 17 km/h
Temperatura: 21°C
Rocío: 18°C
Humedad: 83%
Barómetro: 1021 hPa
Clouds: Few Clouds
Visibility: 10 km
Cloud details: Few Clouds 610 m
2018/08/20 18:00 LEAS 201800Z 08009KT 030V110 9999 FEW020 21/18 Q1021 NOSIG
 
LECO - La Coruna/Alvedr, Spain
Distance from station: ONO 222km
Actualización: 20/08/2018 20:00
Despejado
Despejado
 Viento del N
Viento: N 9 km/h
Temperatura: 26°C
Rocío: 18°C
Humedad: 61%
Barómetro: 1017 hPa
Resumen: Despejado
Visibility: greater than 10 km
2018/08/20 18:00 LECO 201800Z 35005KT CAVOK 26/18 Q1017 NOSIG
LEVX - Vigo/Peinador, Spain
Distance from station: O 214km
Actualización: 20/08/2018 20:00
Despejado
Despejado
 Viento del varies
Viento: varies 4 km/h
Temperatura: 33°C
Rocío: 17°C
Humedad: 38%
Barómetro: 1016 hPa
Resumen: Despejado
Visibility: greater than 10 km
2018/08/20 18:00 LEVX 201800Z VRB02KT CAVOK 33/17 Q1016 NOSIG